createdAt,value
2022-10-28T00:00:54.591Z,13.19
2022-10-28T00:01:54.550Z,13.18
2022-10-28T00:03:00.907Z,13.19
2022-10-28T00:03:54.499Z,13.19
2022-10-28T00:04:54.491Z,13.18
2022-10-28T00:05:54.650Z,13.18
2022-10-28T00:06:54.511Z,13.18
2022-10-28T00:08:01.030Z,13.19
2022-10-28T00:08:55.443Z,13.20
2022-10-28T00:09:54.466Z,13.20
2022-10-28T00:10:54.483Z,13.19
2022-10-28T00:11:54.426Z,13.19
2022-10-28T00:13:00.797Z,13.20
2022-10-28T00:13:54.413Z,13.19
2022-10-28T00:14:54.370Z,13.19
2022-10-28T00:15:54.377Z,13.20
2022-10-28T00:16:54.692Z,13.20
2022-10-28T00:18:00.740Z,13.22
2022-10-28T00:18:54.499Z,13.20
2022-10-28T00:19:54.370Z,13.23
2022-10-28T00:20:54.303Z,13.23
2022-10-28T00:21:54.312Z,13.25
2022-10-28T00:22:54.269Z,13.23
2022-10-28T00:24:00.648Z,13.22
2022-10-28T00:24:54.218Z,13.23
2022-10-28T00:25:54.232Z,13.23
2022-10-28T00:26:54.284Z,13.23
2022-10-28T00:27:54.511Z,13.20
2022-10-28T00:28:54.214Z,13.23
2022-10-28T00:30:00.613Z,13.19
2022-10-28T00:30:54.532Z,13.19
2022-10-28T00:31:54.512Z,13.19
2022-10-28T00:32:58.973Z,13.18
2022-10-28T00:33:54.562Z,13.18
2022-10-28T00:35:00.793Z,13.18
2022-10-28T00:35:54.107Z,13.16
2022-10-28T00:36:54.094Z,13.18
2022-10-28T00:37:54.168Z,13.19
2022-10-28T00:38:54.220Z,13.19
2022-10-28T00:39:54.104Z,13.18
2022-10-28T00:41:00.361Z,13.19
2022-10-28T00:41:54.109Z,13.20
2022-10-28T00:42:54.393Z,13.19
2022-10-28T00:43:54.166Z,13.22
2022-10-28T00:44:54.021Z,13.20
2022-10-28T00:45:54.008Z,13.22
2022-10-28T00:47:00.624Z,13.22
2022-10-28T00:47:54.274Z,13.20
2022-10-28T00:48:54.031Z,13.20
2022-10-28T00:49:53.974Z,13.22
2022-10-28T00:50:53.992Z,13.22
2022-10-28T00:51:53.974Z,13.23
2022-10-28T00:53:00.339Z,13.22
2022-10-28T00:53:53.883Z,13.23
2022-10-28T00:54:53.866Z,13.27
2022-10-28T00:55:53.897Z,13.25
2022-10-28T00:56:53.926Z,13.25
2022-10-28T00:57:53.929Z,13.27
2022-10-28T00:59:00.262Z,13.27
2022-10-28T00:59:53.975Z,13.28
2022-10-28T01:00:56.635Z,13.28
2022-10-28T01:01:53.954Z,13.28
2022-10-28T01:02:54.090Z,13.28
2022-10-28T01:03:53.945Z,13.30
2022-10-28T01:05:01.061Z,13.30
2022-10-28T01:05:54.155Z,13.31
2022-10-28T01:06:53.911Z,13.31
2022-10-28T01:07:54.130Z,13.33
2022-10-28T01:08:57.520Z,13.31
2022-10-28T01:09:55.257Z,13.31
2022-10-28T01:10:59.975Z,13.33
2022-10-28T01:11:53.692Z,13.33
2022-10-28T01:12:54.064Z,13.33
2022-10-28T01:13:53.837Z,13.35
2022-10-28T01:14:53.751Z,13.35
2022-10-28T01:15:59.901Z,13.35
2022-10-28T01:16:53.622Z,13.35
2022-10-28T01:17:53.662Z,13.35
2022-10-28T01:18:54.058Z,13.37
2022-10-28T01:19:53.656Z,13.37
2022-10-28T01:20:55.306Z,13.37
2022-10-28T01:21:59.921Z,13.35
2022-10-28T01:22:53.771Z,13.35
2022-10-28T01:23:53.612Z,13.37
2022-10-28T01:24:53.537Z,13.37
2022-10-28T01:25:53.602Z,13.37
2022-10-28T01:26:53.520Z,13.37
2022-10-28T01:27:59.869Z,13.35
2022-10-28T01:28:53.498Z,13.35
2022-10-28T01:29:53.479Z,13.35
2022-10-28T01:30:53.419Z,13.37
2022-10-28T01:31:53.453Z,13.37
2022-10-28T01:32:59.689Z,13.35
2022-10-28T01:33:53.385Z,13.35
2022-10-28T01:34:53.391Z,13.35
2022-10-28T01:35:53.408Z,13.33
2022-10-28T01:36:53.407Z,13.33
2022-10-28T01:37:53.658Z,13.31
2022-10-28T01:38:59.676Z,13.33
2022-10-28T01:39:53.380Z,13.30
2022-10-28T01:40:53.388Z,13.30
2022-10-28T01:41:53.280Z,13.28
2022-10-28T01:42:53.301Z,13.30
2022-10-28T01:44:00.585Z,13.27
2022-10-28T01:44:53.303Z,13.27
2022-10-28T01:45:53.391Z,13.25
2022-10-28T01:46:54.238Z,13.23
2022-10-28T01:47:53.510Z,13.23
2022-10-28T01:49:00.499Z,13.20
2022-10-28T01:49:53.483Z,13.22
2022-10-28T01:50:53.357Z,13.20
2022-10-28T01:51:53.301Z,13.19
2022-10-28T01:52:53.549Z,13.18
2022-10-28T01:53:54.201Z,13.16
2022-10-28T01:55:00.064Z,13.16
2022-10-28T01:55:53.090Z,13.15
2022-10-28T01:56:53.313Z,13.13
2022-10-28T01:57:53.034Z,13.13
2022-10-28T01:58:53.240Z,13.12
2022-10-28T01:59:53.113Z,13.12
2022-10-28T02:00:59.561Z,13.11
2022-10-28T02:01:53.175Z,13.08
2022-10-28T02:02:53.265Z,13.04
2022-10-28T02:03:54.842Z,13.03
2022-10-28T02:04:53.089Z,13.01
2022-10-28T02:05:53.041Z,13.01
2022-10-28T02:06:59.258Z,13.04
2022-10-28T02:07:53.173Z,13.03
2022-10-28T02:08:52.980Z,13.01
2022-10-28T02:09:53.941Z,13.00
2022-10-28T02:10:52.995Z,13.00
2022-10-28T02:11:59.237Z,12.98
2022-10-28T02:12:53.303Z,12.98
2022-10-28T02:13:52.926Z,12.98
2022-10-28T02:14:52.950Z,12.97
2022-10-28T02:15:52.838Z,12.95
2022-10-28T02:16:52.923Z,12.97
2022-10-28T02:17:59.214Z,12.94
2022-10-28T02:18:52.875Z,12.93
2022-10-28T02:19:53.862Z,12.94
2022-10-28T02:20:52.985Z,12.93
2022-10-28T02:21:52.768Z,12.93
2022-10-28T02:22:59.030Z,12.94
2022-10-28T02:23:52.896Z,12.93
2022-10-28T02:24:52.720Z,12.93
2022-10-28T02:25:52.783Z,12.91
2022-10-28T02:26:52.720Z,12.90
2022-10-28T02:27:52.995Z,12.90
2022-10-28T02:29:03.259Z,12.86
2022-10-28T02:29:53.515Z,12.86
2022-10-28T02:30:52.700Z,12.86
2022-10-28T02:31:53.382Z,12.85
2022-10-28T02:32:52.915Z,12.86
2022-10-28T02:33:52.886Z,12.86
2022-10-28T02:34:59.764Z,12.85
2022-10-28T02:35:52.802Z,12.83
2022-10-28T02:36:59.520Z,12.82
2022-10-28T02:37:52.562Z,12.80
2022-10-28T02:38:52.570Z,12.80
2022-10-28T02:39:59.772Z,12.80
2022-10-28T02:41:52.579Z,12.76
2022-10-28T02:42:53.046Z,12.76
2022-10-28T02:43:52.683Z,12.76
2022-10-28T02:44:52.717Z,12.75
2022-10-28T02:45:58.723Z,12.75
2022-10-28T02:46:52.459Z,12.75
2022-10-28T02:47:52.521Z,12.73
2022-10-28T02:48:53.508Z,12.72
2022-10-28T02:49:52.479Z,12.68
2022-10-28T02:50:53.408Z,12.68
2022-10-28T02:51:58.697Z,12.68
2022-10-28T02:52:52.796Z,12.67
2022-10-28T02:53:52.550Z,12.65
2022-10-28T02:54:52.358Z,12.65
2022-10-28T02:55:52.502Z,12.65
2022-10-28T02:56:53.411Z,12.64
2022-10-28T02:57:58.668Z,12.65
2022-10-28T02:58:53.315Z,12.64
2022-10-28T02:59:52.654Z,12.64
2022-10-28T03:00:52.469Z,12.62
2022-10-28T03:01:52.458Z,12.61
2022-10-28T03:02:58.916Z,12.62
2022-10-28T03:03:52.351Z,12.60
2022-10-28T03:04:52.557Z,12.60
2022-10-28T03:05:52.170Z,12.60
2022-10-28T03:06:52.217Z,12.61
2022-10-28T03:07:52.607Z,12.60
2022-10-28T03:08:59.561Z,12.58
2022-10-28T03:09:52.281Z,12.57
2022-10-28T03:10:52.324Z,12.58
2022-10-28T03:11:53.203Z,12.54
2022-10-28T03:12:52.238Z,12.55
2022-10-28T03:13:52.443Z,12.54
2022-10-28T03:14:58.439Z,12.54
2022-10-28T03:15:52.141Z,12.54
2022-10-28T03:16:52.186Z,12.54
2022-10-28T03:17:52.704Z,12.49
2022-10-28T03:18:52.134Z,12.50
2022-10-28T03:19:52.226Z,12.49
2022-10-28T03:20:59.131Z,12.47
2022-10-28T03:21:52.090Z,12.46
2022-10-28T03:22:52.435Z,12.46
2022-10-28T03:23:52.014Z,12.45
2022-10-28T03:24:52.019Z,12.43
2022-10-28T03:25:59.363Z,12.42
2022-10-28T03:26:52.085Z,12.43
2022-10-28T03:27:51.951Z,12.42
2022-10-28T03:28:51.982Z,12.43
2022-10-28T03:29:51.949Z,12.42
2022-10-28T03:30:51.939Z,12.40
2022-10-28T03:31:58.221Z,12.40
2022-10-28T03:32:52.210Z,12.37
2022-10-28T03:33:51.829Z,12.39
2022-10-28T03:34:51.816Z,12.37
2022-10-28T03:35:51.945Z,12.39
2022-10-28T03:36:51.832Z,12.42
2022-10-28T03:37:59.238Z,12.42
2022-10-28T03:38:52.013Z,12.42
2022-10-28T03:39:51.886Z,12.43
2022-10-28T03:40:59.300Z,12.42
2022-10-28T03:41:52.157Z,12.42
2022-10-28T03:42:58.221Z,12.43
2022-10-28T03:43:52.756Z,12.43
2022-10-28T03:44:51.928Z,12.43
2022-10-28T03:45:51.934Z,12.43
2022-10-28T03:46:52.842Z,12.39
2022-10-28T03:47:52.058Z,12.37
2022-10-28T03:48:57.987Z,12.32
2022-10-28T03:49:51.695Z,12.28
2022-10-28T03:50:52.610Z,12.24
2022-10-28T03:51:51.644Z,12.24
2022-10-28T03:52:52.669Z,12.22
2022-10-28T03:53:51.661Z,12.22
2022-10-28T03:54:58.938Z,12.22
2022-10-28T03:55:51.675Z,12.24
2022-10-28T03:56:51.645Z,12.25
2022-10-28T03:57:51.844Z,12.25
2022-10-28T03:59:51.520Z,12.27
2022-10-28T04:00:58.903Z,12.27
2022-10-28T04:01:51.603Z,12.28
2022-10-28T04:02:51.797Z,12.27
2022-10-28T04:03:51.531Z,12.28
2022-10-28T04:04:51.533Z,12.29
2022-10-28T04:05:51.456Z,12.27
2022-10-28T04:06:57.695Z,12.28
2022-10-28T04:07:51.412Z,12.28
2022-10-28T04:08:51.474Z,12.28
2022-10-28T04:09:51.399Z,12.27
2022-10-28T04:10:52.409Z,12.27
2022-10-28T04:11:57.704Z,12.25
2022-10-28T04:12:51.462Z,12.24
2022-10-28T04:13:51.379Z,12.24
2022-10-28T04:14:51.409Z,12.25
2022-10-28T04:15:51.299Z,12.24
2022-10-28T04:16:51.370Z,12.24
2022-10-28T04:17:57.603Z,12.22
2022-10-28T04:18:51.257Z,12.24
2022-10-28T04:19:51.252Z,12.22
2022-10-28T04:20:51.254Z,12.24
2022-10-28T04:21:51.268Z,12.22
2022-10-28T04:22:57.587Z,12.22
2022-10-28T04:23:51.197Z,12.22
2022-10-28T04:24:51.249Z,12.21
2022-10-28T04:25:51.202Z,12.21
2022-10-28T04:26:51.180Z,12.20
2022-10-28T04:27:57.433Z,12.18
2022-10-28T04:28:51.132Z,12.17
2022-10-28T04:29:51.112Z,12.17
2022-10-28T04:30:51.143Z,12.15
2022-10-28T04:31:52.329Z,12.15
2022-10-28T04:32:58.525Z,12.13
2022-10-28T04:33:51.123Z,12.12
2022-10-28T04:34:51.106Z,12.12
2022-10-28T04:35:51.120Z,12.12
2022-10-28T04:36:52.183Z,12.10
2022-10-28T04:37:57.872Z,12.07
2022-10-28T04:38:51.097Z,12.06
2022-10-28T04:39:51.088Z,12.06
2022-10-28T04:40:57.413Z,12.04
2022-10-28T04:41:52.120Z,12.04
2022-10-28T04:42:57.380Z,12.04
2022-10-28T04:43:51.034Z,12.03
2022-10-28T04:44:51.011Z,12.03
2022-10-28T04:45:50.997Z,12.02
2022-10-28T04:46:51.109Z,12.02
2022-10-28T04:47:58.390Z,12.02
2022-10-28T04:48:50.976Z,11.99
2022-10-28T04:49:51.919Z,11.97
2022-10-28T04:50:51.270Z,11.99
2022-10-28T04:51:50.906Z,12.00
2022-10-28T04:52:51.554Z,11.97
2022-10-28T04:53:57.620Z,11.97
2022-10-28T04:54:51.422Z,11.97
2022-10-28T04:55:51.316Z,11.95
2022-10-28T04:56:52.084Z,11.94
2022-10-28T04:57:50.918Z,11.94
2022-10-28T04:58:50.877Z,11.91
2022-10-28T04:59:57.079Z,11.91
2022-10-28T05:00:57.107Z,11.94
2022-10-28T05:01:50.945Z,11.91
2022-10-28T05:02:50.806Z,11.91
2022-10-28T05:03:50.757Z,11.90
2022-10-28T05:04:58.535Z,11.91
2022-10-28T05:05:57.101Z,11.91
2022-10-28T05:06:51.879Z,11.91
2022-10-28T05:07:50.895Z,11.94
2022-10-28T05:08:50.991Z,11.91
2022-10-28T05:09:51.835Z,11.90
2022-10-28T05:10:59.205Z,11.88
2022-10-28T05:11:51.707Z,11.88
2022-10-28T05:12:51.674Z,11.88
2022-10-28T05:13:51.878Z,11.90
2022-10-28T05:14:53.170Z,11.87
2022-10-28T05:15:56.964Z,11.87
2022-10-28T05:16:51.012Z,11.86
2022-10-28T05:17:50.880Z,11.86
2022-10-28T05:18:50.557Z,11.84
2022-10-28T05:19:50.540Z,11.84
2022-10-28T05:20:57.759Z,11.83
2022-10-28T05:21:50.735Z,11.81
2022-10-28T05:22:50.817Z,11.81
2022-10-28T05:23:54.369Z,11.81
2022-10-28T05:24:50.777Z,11.81
2022-10-28T05:25:51.643Z,11.81
2022-10-28T05:26:57.959Z,11.81
2022-10-28T05:27:50.754Z,11.80
2022-10-28T05:28:50.443Z,11.81
2022-10-28T05:29:50.365Z,11.80
2022-10-28T05:30:50.512Z,11.80
2022-10-28T05:31:51.494Z,11.81
2022-10-28T05:32:56.955Z,11.83
2022-10-28T05:33:50.299Z,11.83
2022-10-28T05:34:50.270Z,11.84
2022-10-28T05:35:50.376Z,11.84
2022-10-28T05:36:50.281Z,11.84
2022-10-28T05:37:50.331Z,11.86
2022-10-28T05:38:56.626Z,11.84
2022-10-28T05:39:50.225Z,11.86
2022-10-28T05:40:50.207Z,11.87
2022-10-28T05:41:50.254Z,11.86
2022-10-28T05:42:50.325Z,11.86
2022-10-28T05:43:56.767Z,11.87
2022-10-28T05:44:50.376Z,11.87
2022-10-28T05:45:50.231Z,11.87
2022-10-28T05:46:50.214Z,11.88
2022-10-28T05:47:50.123Z,11.87
2022-10-28T05:48:56.499Z,11.88
2022-10-28T05:49:50.118Z,11.88
2022-10-28T05:50:50.070Z,11.90
2022-10-28T05:51:50.125Z,11.91
2022-10-28T05:53:11.147Z,11.91
2022-10-28T05:53:50.405Z,11.91
2022-10-28T05:54:56.624Z,11.94
2022-10-28T05:55:50.099Z,11.95
2022-10-28T05:56:50.105Z,11.95
2022-10-28T05:57:49.999Z,11.95
2022-10-28T05:59:56.356Z,11.99
2022-10-28T06:00:49.961Z,12.02
2022-10-28T06:01:50.013Z,12.03
2022-10-28T06:02:49.939Z,12.04
2022-10-28T06:03:49.984Z,12.06
2022-10-28T06:04:49.885Z,12.07
2022-10-28T06:05:56.203Z,12.07
2022-10-28T06:06:49.940Z,12.09
2022-10-28T06:07:49.862Z,12.10
2022-10-28T06:08:49.862Z,12.12
2022-10-28T06:09:49.838Z,12.13
2022-10-28T06:10:58.010Z,12.17
2022-10-28T06:11:48.371Z,12.21
2022-10-28T06:12:48.322Z,12.24
2022-10-28T06:13:48.403Z,12.28
2022-10-28T06:14:48.274Z,12.31
2022-10-28T06:15:54.859Z,12.32
2022-10-28T06:16:48.297Z,12.37
2022-10-28T06:17:48.217Z,12.42
2022-10-28T06:18:48.208Z,12.45
2022-10-28T06:19:48.852Z,12.46
2022-10-28T06:20:48.181Z,12.47
2022-10-28T06:21:54.709Z,12.47
2022-10-28T06:22:48.137Z,12.50
2022-10-28T06:23:48.163Z,12.53
2022-10-28T06:24:50.192Z,12.55
2022-10-28T06:25:48.277Z,12.60
2022-10-28T06:26:48.346Z,12.62
2022-10-28T06:27:54.824Z,12.67
2022-10-28T06:28:48.204Z,12.70
2022-10-28T06:29:49.077Z,12.73
2022-10-28T06:30:49.213Z,12.76
2022-10-28T06:31:48.256Z,12.78
2022-10-28T06:32:48.159Z,12.80
2022-10-28T06:33:54.342Z,12.82
2022-10-28T06:34:48.144Z,12.85
2022-10-28T06:35:48.041Z,12.86
2022-10-28T06:36:49.056Z,12.87
2022-10-28T06:37:48.024Z,12.90
2022-10-28T06:38:54.547Z,12.90
2022-10-28T06:39:48.170Z,12.90
2022-10-28T06:40:50.258Z,12.90
2022-10-28T06:42:09.133Z,12.90
2022-10-28T06:42:48.002Z,12.90
2022-10-28T06:43:54.225Z,12.91
2022-10-28T06:44:48.038Z,12.90
2022-10-28T06:45:54.196Z,12.91
2022-10-28T06:46:49.534Z,12.93
2022-10-28T06:47:49.378Z,12.93
2022-10-28T06:48:50.429Z,12.95
2022-10-28T06:49:55.677Z,12.95
2022-10-28T06:50:49.395Z,12.97
2022-10-28T06:51:49.486Z,12.98
2022-10-28T06:52:49.383Z,13.00
2022-10-28T06:53:49.376Z,13.00
2022-10-28T06:54:49.411Z,13.01
2022-10-28T06:55:56.027Z,13.00
2022-10-28T06:56:49.484Z,13.01
2022-10-28T06:57:49.378Z,13.03
2022-10-28T06:58:50.235Z,13.01
2022-10-28T06:59:49.608Z,13.00
2022-10-28T07:00:55.661Z,13.03
2022-10-28T07:01:49.527Z,13.05
2022-10-28T07:02:49.295Z,13.05
2022-10-28T07:03:49.181Z,13.05
2022-10-28T07:04:49.223Z,13.08
2022-10-28T07:05:49.206Z,13.09
2022-10-28T07:06:51.950Z,13.09
2022-10-28T07:07:50.220Z,13.08
2022-10-28T07:08:49.123Z,13.11
2022-10-28T07:09:49.388Z,13.11
2022-10-28T07:10:51.093Z,13.11
2022-10-28T07:11:56.046Z,13.11
2022-10-28T07:12:49.078Z,13.11
2022-10-28T07:13:49.195Z,13.12
2022-10-28T07:14:50.773Z,13.13
2022-10-28T07:15:49.144Z,13.13
2022-10-28T07:16:49.086Z,13.16
2022-10-28T07:17:55.607Z,13.16
2022-10-28T07:18:48.983Z,13.18
2022-10-28T07:19:51.089Z,13.18
2022-10-28T07:20:49.014Z,13.19
2022-10-28T07:21:49.071Z,13.22
2022-10-28T07:22:55.504Z,13.23
2022-10-28T07:23:48.988Z,13.25
2022-10-28T07:24:49.033Z,13.27
2022-10-28T07:25:50.247Z,13.30
2022-10-28T07:26:50.290Z,13.31
2022-10-28T07:27:49.021Z,13.35
2022-10-28T07:28:56.379Z,13.37
2022-10-28T07:29:49.592Z,13.39
2022-10-28T07:30:48.936Z,13.39
2022-10-28T07:31:48.913Z,13.42
2022-10-28T07:32:49.106Z,13.42
2022-10-28T07:33:55.140Z,13.47
2022-10-28T07:34:48.813Z,13.50
2022-10-28T07:35:48.908Z,13.52
2022-10-28T07:36:48.885Z,13.53
2022-10-28T07:37:48.792Z,13.56
2022-10-28T07:38:48.761Z,13.59
2022-10-28T07:39:55.224Z,13.62
2022-10-28T07:40:49.027Z,13.65
2022-10-28T07:41:49.743Z,13.67
2022-10-28T07:42:48.713Z,13.70
2022-10-28T07:43:48.698Z,13.74
2022-10-28T07:44:55.032Z,13.74
2022-10-28T07:45:48.695Z,13.77
2022-10-28T07:46:48.743Z,13.78
2022-10-28T07:47:48.639Z,13.79
2022-10-28T07:48:49.062Z,13.83
2022-10-28T07:49:55.619Z,13.85
2022-10-28T07:50:49.563Z,13.86
2022-10-28T07:51:48.684Z,13.89
2022-10-28T07:52:48.634Z,13.92
2022-10-28T07:53:49.053Z,13.93
2022-10-28T07:54:56.925Z,13.95
2022-10-28T07:55:48.734Z,13.99
2022-10-28T07:56:48.813Z,14.03
2022-10-28T07:57:48.570Z,14.04
2022-10-28T07:58:49.009Z,14.04
2022-10-28T07:59:49.399Z,14.07
2022-10-28T08:00:55.010Z,14.10
2022-10-28T08:01:49.895Z,14.11
2022-10-28T08:02:49.989Z,14.14
2022-10-28T08:03:52.613Z,14.17
2022-10-28T08:04:48.621Z,14.18
2022-10-28T08:05:48.513Z,14.22
2022-10-28T08:07:48.523Z,14.23
2022-10-28T08:08:48.414Z,14.26
2022-10-28T08:09:48.667Z,14.29
2022-10-28T08:10:48.499Z,14.29
2022-10-28T08:11:48.550Z,14.32
2022-10-28T08:12:54.732Z,14.35
2022-10-28T08:13:48.467Z,14.36
2022-10-28T08:14:48.547Z,14.40
2022-10-28T08:15:48.355Z,14.41
2022-10-28T08:16:49.769Z,14.43
2022-10-28T08:17:48.264Z,14.45
2022-10-28T08:18:55.629Z,14.48
2022-10-28T08:19:48.312Z,14.51
2022-10-28T08:20:48.379Z,14.54
2022-10-28T08:21:48.510Z,14.59
2022-10-28T08:22:48.522Z,14.66
2022-10-28T08:23:54.671Z,14.72
2022-10-28T08:24:48.569Z,14.82
2022-10-28T08:25:48.349Z,14.85
2022-10-28T08:26:48.850Z,14.96
2022-10-28T08:27:48.295Z,15.02
2022-10-28T08:28:54.746Z,15.09
2022-10-28T08:29:48.162Z,15.17
2022-10-28T08:31:04.056Z,15.24
2022-10-28T08:31:49.772Z,15.35
2022-10-28T08:32:49.609Z,15.39
2022-10-28T08:33:48.161Z,15.46
2022-10-28T08:34:56.496Z,15.52
2022-10-28T08:35:48.060Z,15.58
2022-10-28T08:36:48.466Z,15.64
2022-10-28T08:37:48.059Z,15.70
2022-10-28T08:38:49.198Z,15.75
2022-10-28T08:39:55.270Z,15.79
2022-10-28T08:40:47.955Z,15.83
2022-10-28T08:41:47.980Z,15.84
2022-10-28T08:42:47.994Z,15.86
2022-10-28T08:43:57.056Z,15.88
2022-10-28T08:44:50.514Z,15.91
2022-10-28T08:45:54.392Z,15.91
2022-10-28T08:46:48.281Z,15.94
2022-10-28T08:47:47.998Z,15.95
2022-10-28T08:48:47.957Z,15.94
2022-10-28T08:49:54.447Z,15.92
2022-10-28T08:50:54.226Z,15.91
2022-10-28T08:51:48.655Z,15.88
2022-10-28T08:52:47.815Z,15.84
2022-10-28T08:53:47.906Z,15.80
2022-10-28T08:54:49.026Z,15.77
2022-10-28T08:55:47.869Z,15.75
2022-10-28T08:56:55.150Z,15.73
2022-10-28T08:57:48.429Z,15.73
2022-10-28T08:58:47.762Z,15.72
2022-10-28T08:59:47.748Z,15.73
2022-10-28T09:00:48.194Z,15.73
2022-10-28T09:01:47.979Z,15.73
2022-10-28T09:02:54.512Z,15.75
2022-10-28T09:03:47.766Z,15.79
2022-10-28T09:04:54.066Z,15.79
2022-10-28T09:05:48.317Z,15.80
2022-10-28T09:06:47.735Z,15.86
2022-10-28T09:07:47.695Z,15.91
2022-10-28T09:08:53.915Z,15.95
2022-10-28T09:09:47.633Z,16.01
2022-10-28T09:10:47.638Z,16.05
2022-10-28T09:11:47.647Z,16.05
2022-10-28T09:12:47.707Z,16.08
2022-10-28T09:13:48.331Z,16.10
2022-10-28T09:14:54.092Z,16.12
2022-10-28T09:15:48.941Z,16.10
2022-10-28T09:16:47.681Z,16.12
2022-10-28T09:17:47.943Z,16.12
2022-10-28T09:18:48.716Z,16.13
2022-10-28T09:19:47.509Z,16.15
2022-10-28T09:20:55.004Z,16.15
2022-10-28T09:21:47.491Z,16.15
2022-10-28T09:22:47.724Z,16.16
2022-10-28T09:23:47.378Z,16.16
2022-10-28T09:24:47.682Z,16.20
2022-10-28T09:25:53.660Z,16.23
2022-10-28T09:26:47.479Z,16.24
2022-10-28T09:27:47.374Z,16.29
2022-10-28T09:28:47.341Z,16.32
2022-10-28T09:29:47.461Z,16.33
2022-10-28T09:30:53.638Z,16.39
2022-10-28T09:31:47.941Z,16.42
2022-10-28T09:32:47.322Z,16.47
2022-10-28T09:33:47.327Z,16.53
2022-10-28T09:34:47.245Z,16.56
2022-10-28T09:35:53.547Z,16.60
2022-10-28T09:36:47.383Z,16.65
2022-10-28T09:37:47.880Z,16.69
2022-10-28T09:38:47.295Z,16.72
2022-10-28T09:39:49.326Z,16.75
2022-10-28T09:40:48.138Z,16.79
2022-10-28T09:41:53.538Z,16.84
2022-10-28T09:42:48.607Z,16.87
2022-10-28T09:43:47.205Z,16.91
2022-10-28T09:44:47.105Z,16.94
2022-10-28T09:45:47.069Z,17.01
2022-10-28T09:46:47.176Z,17.04
2022-10-28T09:47:53.622Z,17.05
2022-10-28T09:48:47.054Z,17.05
2022-10-28T09:49:47.029Z,17.11
2022-10-28T09:50:47.832Z,17.15
2022-10-28T09:51:47.087Z,17.19
2022-10-28T09:52:47.006Z,17.23
2022-10-28T09:53:53.269Z,17.27
2022-10-28T09:54:46.961Z,17.29
2022-10-28T09:55:46.989Z,17.31
2022-10-28T09:56:46.999Z,17.33
2022-10-28T09:57:46.968Z,17.38
2022-10-28T09:58:47.709Z,17.44
2022-10-28T09:59:53.203Z,17.49
2022-10-28T10:00:48.198Z,17.59
2022-10-28T10:01:47.034Z,17.65
2022-10-28T10:02:47.059Z,17.72
2022-10-28T10:03:46.855Z,17.80
2022-10-28T10:04:46.962Z,17.83
2022-10-28T10:05:53.804Z,17.90
2022-10-28T10:06:47.094Z,17.98
2022-10-28T10:07:46.835Z,18.07
2022-10-28T10:08:46.826Z,18.15
2022-10-28T10:09:46.902Z,18.22
2022-10-28T10:10:46.994Z,18.28
2022-10-28T10:11:54.082Z,18.29
2022-10-28T10:12:48.686Z,18.33
2022-10-28T10:13:46.894Z,18.38
2022-10-28T10:14:46.716Z,18.40
2022-10-28T10:15:46.666Z,18.40
2022-10-28T10:16:46.678Z,18.43
2022-10-28T10:17:53.067Z,18.44
2022-10-28T10:18:46.625Z,18.50
2022-10-28T10:19:50.347Z,18.53
2022-10-28T10:20:46.601Z,18.53
2022-10-28T10:21:46.609Z,18.53
2022-10-28T10:22:53.186Z,18.52
2022-10-28T10:23:46.611Z,18.53
2022-10-28T10:24:46.571Z,18.58
2022-10-28T10:25:52.917Z,18.58
2022-10-28T10:26:46.633Z,18.62
2022-10-28T10:27:46.541Z,18.66
2022-10-28T10:28:52.845Z,18.73
2022-10-28T10:29:46.524Z,18.77
2022-10-28T10:30:46.535Z,18.77
2022-10-28T10:31:46.504Z,18.77
2022-10-28T10:32:47.429Z,18.80
2022-10-28T10:33:46.484Z,18.84
2022-10-28T10:34:52.843Z,18.89
2022-10-28T10:35:46.761Z,18.95
2022-10-28T10:36:46.542Z,18.96
2022-10-28T10:37:46.392Z,18.96
2022-10-28T10:38:46.451Z,18.99
2022-10-28T10:39:52.728Z,19.04
2022-10-28T10:40:46.412Z,19.04
2022-10-28T10:41:46.810Z,19.08
2022-10-28T10:42:57.515Z,19.07
2022-10-28T10:43:47.452Z,19.08
2022-10-28T10:44:46.417Z,19.11
2022-10-28T10:45:52.688Z,19.15
2022-10-28T10:46:46.335Z,19.16
2022-10-28T10:47:46.317Z,19.21
2022-10-28T10:48:46.313Z,19.21
2022-10-28T10:49:46.269Z,19.26
2022-10-28T10:50:46.283Z,19.27
2022-10-28T10:51:52.606Z,19.30
2022-10-28T10:52:46.314Z,19.34
2022-10-28T10:53:46.231Z,19.40
2022-10-28T10:54:46.296Z,19.45
2022-10-28T10:55:46.245Z,19.49
2022-10-28T10:56:46.545Z,19.51
2022-10-28T10:57:52.798Z,19.54
2022-10-28T10:58:47.512Z,19.56
2022-10-28T10:59:46.168Z,19.62
2022-10-28T11:00:46.467Z,19.64
2022-10-28T11:01:46.349Z,19.67
2022-10-28T11:02:46.182Z,19.71
2022-10-28T11:03:52.433Z,19.73
2022-10-28T11:04:46.081Z,19.77
2022-10-28T11:05:47.987Z,19.79
2022-10-28T11:06:47.681Z,19.84
2022-10-28T11:07:46.150Z,19.85
2022-10-28T11:08:46.177Z,19.88
2022-10-28T11:09:52.443Z,19.88
2022-10-28T11:10:47.541Z,19.94
2022-10-28T11:11:46.323Z,19.99
2022-10-28T11:12:46.055Z,20.03
2022-10-28T11:13:47.026Z,20.03
2022-10-28T11:14:47.231Z,20.09
2022-10-28T11:15:52.811Z,20.11
2022-10-28T11:16:46.343Z,20.16
2022-10-28T11:17:47.237Z,20.19
2022-10-28T11:18:45.978Z,20.26
2022-10-28T11:19:46.134Z,20.29
2022-10-28T11:20:45.963Z,20.34
2022-10-28T11:21:52.293Z,20.37
2022-10-28T11:22:46.051Z,20.43
2022-10-28T11:23:46.981Z,20.47
2022-10-28T11:24:45.867Z,20.50
2022-10-28T11:25:45.895Z,20.55
2022-10-28T11:26:57.145Z,20.58
2022-10-28T11:27:48.629Z,20.60
2022-10-28T11:28:48.909Z,20.65
2022-10-28T11:29:45.881Z,20.69
2022-10-28T11:30:45.843Z,20.75
2022-10-28T11:31:52.157Z,20.75
2022-10-28T11:32:56.176Z,20.80
2022-10-28T11:33:46.770Z,20.81
2022-10-28T11:34:45.685Z,20.84
2022-10-28T11:35:45.709Z,20.88
2022-10-28T11:36:52.076Z,20.93
2022-10-28T11:37:45.687Z,20.96
2022-10-28T11:38:45.974Z,20.97
2022-10-28T11:39:45.671Z,21.02
2022-10-28T11:40:45.690Z,21.07
2022-10-28T11:41:45.783Z,21.15
2022-10-28T11:42:52.640Z,21.21
2022-10-28T11:43:46.907Z,21.27
2022-10-28T11:44:45.705Z,21.32
2022-10-28T11:45:48.656Z,21.36
2022-10-28T11:46:47.165Z,21.36
2022-10-28T11:47:52.321Z,21.39
2022-10-28T11:48:45.578Z,21.43
2022-10-28T11:49:45.542Z,21.45
2022-10-28T11:50:45.535Z,21.50
2022-10-28T11:51:45.847Z,21.55
2022-10-28T11:52:45.915Z,21.57
2022-10-28T11:53:51.947Z,21.58
2022-10-28T11:54:45.577Z,21.60
2022-10-28T11:55:45.490Z,21.62
2022-10-28T11:56:45.808Z,21.72
2022-10-28T11:57:45.701Z,21.75
2022-10-28T11:58:51.753Z,21.77
2022-10-28T11:59:45.456Z,21.79
2022-10-28T12:00:45.433Z,21.79
2022-10-28T12:01:46.426Z,21.79
2022-10-28T12:02:48.139Z,21.77
2022-10-28T12:03:54.342Z,21.76
2022-10-28T12:04:45.368Z,21.83
2022-10-28T12:05:45.354Z,21.89
2022-10-28T12:06:46.361Z,21.93
2022-10-28T12:07:45.268Z,21.98
2022-10-28T12:08:45.338Z,22.02
2022-10-28T12:09:51.604Z,22.10
2022-10-28T12:10:45.257Z,22.08
2022-10-28T12:11:45.400Z,22.07
2022-10-28T12:12:48.682Z,22.04
2022-10-28T12:13:46.805Z,22.06
2022-10-28T12:14:51.549Z,22.02
2022-10-28T12:15:45.197Z,22.00
2022-10-28T12:16:45.217Z,22.07
2022-10-28T12:17:45.228Z,22.08
2022-10-28T12:18:45.153Z,22.13
2022-10-28T12:19:45.174Z,22.14
2022-10-28T12:20:51.502Z,22.15
2022-10-28T12:21:45.111Z,22.22
2022-10-28T12:22:45.102Z,22.28
2022-10-28T12:23:45.074Z,22.33
2022-10-28T12:24:45.934Z,22.41
2022-10-28T12:25:45.085Z,22.47
2022-10-28T12:26:51.744Z,22.53
2022-10-28T12:27:45.073Z,22.55
2022-10-28T12:28:45.085Z,22.62
2022-10-28T12:29:45.024Z,22.72
2022-10-28T12:30:45.073Z,22.76
2022-10-28T12:31:45.044Z,22.76
2022-10-28T12:32:51.401Z,22.76
2022-10-28T12:33:45.158Z,22.78
2022-10-28T12:34:44.984Z,22.80
2022-10-28T12:35:45.317Z,22.81
2022-10-28T12:36:45.042Z,22.80
2022-10-28T12:37:47.797Z,22.81
2022-10-28T12:38:51.312Z,22.81
2022-10-28T12:39:44.909Z,22.83
2022-10-28T12:40:45.176Z,22.84
2022-10-28T12:41:45.845Z,22.87
2022-10-28T12:42:44.881Z,22.90
2022-10-28T12:43:52.005Z,22.96
2022-10-28T12:44:45.969Z,23.02
2022-10-28T12:45:45.038Z,23.06
2022-10-28T12:46:45.138Z,23.13
2022-10-28T12:47:44.789Z,23.21
2022-10-28T12:48:44.884Z,23.31
2022-10-28T12:49:51.203Z,23.51
2022-10-28T12:50:51.200Z,23.77
2022-10-28T12:51:45.246Z,24.08
2022-10-28T12:52:44.808Z,24.42
2022-10-28T12:53:44.911Z,24.80
2022-10-28T12:54:53.778Z,25.21
2022-10-28T12:55:44.788Z,25.60
2022-10-28T12:56:44.792Z,25.91